Time;durP1;ratioP1;P1;durP2;ratioP2;P2;SDS_P1;SDS_P2;PMS_P1;PMS_P2;Temp;Humidity;BMP_temperature;BMP_pressure;BME280_temperature;BME280_humidity;BME280_pressure;Samples;Min_cycle;Max_cycle;Signal;HPM_P1;HPM_P2
2023/08/16 00:01:33;;;;;;;12.30;11.03;;;;;;;;;;4910626;29;20897;-67
2023/08/16 00:03:59;;;;;;;11.00;10.00;;;;;;;;;;4911267;29;20199;-67
2023/08/16 00:06:27;;;;;;;14.27;11.43;;;;;;;;;;4911104;29;20294;-67
2023/08/16 00:09:11;;;;;;;12.93;10.70;;;;;;;;;;4910959;29;20175;-67
2023/08/16 00:11:38;;;;;;;12.07;10.77;;;;;;;;;;4910931;29;20254;-67
2023/08/16 00:14:25;;;;;;;12.27;10.97;;;;;;;;;;4909508;29;20179;-67
2023/08/16 00:16:52;;;;;;;13.37;11.70;;;;;;;;;;4911023;29;20262;-68
2023/08/16 00:19:19;;;;;;;13.70;11.10;;;;;;;;;;4911085;29;20243;-68
2023/08/16 00:21:45;;;;;;;13.37;10.53;;;;;;;;;;4893911;29;20191;-67
2023/08/16 00:24:12;;;;;;;13.57;10.27;;;;;;;;;;4878226;29;20318;-67
2023/08/16 00:26:56;;;;;;;11.33;10.17;;;;;;;;;;4910570;29;20211;-67
2023/08/16 00:29:23;;;;;;;13.20;10.70;;;;;;;;;;4894462;29;20230;-67
2023/08/16 00:31:50;;;;;;;14.27;10.93;;;;;;;;;;4910736;29;20215;-68
2023/08/16 00:34:17;;;;;;;12.47;11.13;;;;;;;;;;4900903;29;20195;-68
2023/08/16 00:36:44;;;;;;;13.30;11.50;;;;;;;;;;4897952;29;20654;-68
2023/08/16 00:39:11;;;;;;;12.13;10.63;;;;;;;;;;4916325;29;20195;-67
2023/08/16 00:41:37;;;;;;;12.53;11.23;;;;;;;;;;4927047;29;20308;-68
2023/08/16 00:44:04;;;;;;;12.90;11.60;;;;;;;;;;4897428;29;20268;-67
2023/08/16 00:46:48;;;;;;;12.47;11.17;;;;;;;;;;4897537;29;20222;-68
2023/08/16 00:49:15;;;;;;;12.47;11.17;;;;;;;;;;4912738;29;20218;-67
2023/08/16 00:52:00;;;;;;;11.63;10.50;;;;;;;;;;4913400;29;20266;-67
2023/08/16 00:54:27;;;;;;;15.87;12.40;;;;;;;;;;4895802;29;20601;-67
2023/08/16 00:56:54;;;;;;;14.30;12.03;;;;;;;;;;4896685;29;20271;-68
2023/08/16 00:59:20;;;;;;;12.87;11.13;;;;;;;;;;4897518;29;20223;-67
2023/08/16 01:01:47;;;;;;;15.93;13.63;;;;;;;;;;4914234;29;20223;-68
2023/08/16 01:04:14;;;;;;;16.53;13.93;;;;;;;;;;4913633;29;20807;-67
2023/08/16 01:06:42;;;;;;;19.03;14.80;;;;;;;;;;4896819;29;20218;-68
2023/08/16 01:09:09;;;;;;;15.80;12.93;;;;;;;;;;4896038;29;20298;-67
2023/08/16 01:47:53;;;;;;;25.60;19.07;;;;;;;;;;4893624;29;20821;-67
2023/08/16 01:50:20;;;;;;;18.67;13.33;;;;;;;;;;4877642;29;20252;-68
2023/08/16 01:52:47;;;;;;;16.03;12.90;;;;;;;;;;4893263;29;20275;-67
2023/08/16 01:55:14;;;;;;;15.83;12.80;;;;;;;;;;4893991;29;20704;-68
2023/08/16 01:57:41;;;;;;;14.07;12.67;;;;;;;;;;4877307;29;20228;-68
2023/08/16 02:00:09;;;;;;;14.27;12.73;;;;;;;;;;4892972;29;20203;-67
2023/08/16 02:02:41;;;;;;;13.47;11.47;;;;;;;;;;4893635;29;20204;-68
2023/08/16 02:05:26;;;;;;;15.30;11.60;;;;;;;;;;4877175;29;20176;-68
2023/08/16 02:07:52;;;;;;;12.57;10.23;;;;;;;;;;4893850;29;21107;-68
2023/08/16 02:10:37;;;;;;;10.23;9.23;;;;;;;;;;4877030;29;20228;-68
2023/08/16 02:13:04;;;;;;;11.03;8.93;;;;;;;;;;4878658;29;20196;-67
2023/08/16 02:15:48;;;;;;;11.07;7.73;;;;;;;;;;4912368;29;20180;-67
2023/08/16 02:18:16;;;;;;;8.73;7.83;;;;;;;;;;4895411;29;20230;-67
2023/08/16 02:20:43;;;;;;;8.73;7.83;;;;;;;;;;4895552;29;20579;-68
2023/08/16 02:23:10;;;;;;;10.63;6.97;;;;;;;;;;4912568;29;20279;-68
2023/08/16 02:25:37;;;;;;;8.53;7.30;;;;;;;;;;4895463;29;20273;-68
2023/08/16 02:28:23;;;;;;;7.77;7.07;;;;;;;;;;4898373;29;20219;-68
2023/08/16 02:30:50;;;;;;;7.93;7.07;;;;;;;;;;4910730;29;20286;-68
2023/08/16 02:33:34;;;;;;;8.50;6.90;;;;;;;;;;4894837;29;20576;-68
2023/08/16 02:36:01;;;;;;;8.63;7.73;;;;;;;;;;4895596;29;20203;-68
2023/08/16 02:38:29;;;;;;;8.43;7.63;;;;;;;;;;4912300;29;20267;-68
2023/08/16 02:40:56;;;;;;;11.77;7.27;;;;;;;;;;4906229;29;20219;-69
2023/08/16 02:43:23;;;;;;;7.90;7.13;;;;;;;;;;4921381;29;20206;-68
2023/08/16 02:45:51;;;;;;;9.83;7.17;;;;;;;;;;4901320;29;20196;-68
2023/08/16 02:48:18;;;;;;;7.93;7.07;;;;;;;;;;4893964;29;20258;-69
2023/08/16 02:50:45;;;;;;;10.10;7.27;;;;;;;;;;4909820;29;20206;-68
2023/08/16 02:53:29;;;;;;;8.27;7.47;;;;;;;;;;4892963;29;20186;-69
2023/08/16 02:55:56;;;;;;;7.93;6.57;;;;;;;;;;4899411;29;20798;-68
2023/08/16 02:58:41;;;;;;;8.00;7.17;;;;;;;;;;4928923;29;20253;-68
2023/08/16 03:01:08;;;;;;;10.73;7.07;;;;;;;;;;4917192;29;20250;-68
2023/08/16 03:03:35;;;;;;;10.13;6.93;;;;;;;;;;4908827;29;20202;-68
2023/08/16 03:06:03;;;;;;;9.53;7.00;;;;;;;;;;4891546;29;20203;-69
2023/08/16 03:08:30;;;;;;;8.10;6.83;;;;;;;;;;4909569;29;20208;-69
2023/08/16 03:10:56;;;;;;;6.00;5.40;;;;;;;;;;4900643;29;20286;-68
2023/08/16 03:13:23;;;;;;;6.23;5.60;;;;;;;;;;4895832;29;20254;-69
2023/08/16 03:15:50;;;;;;;8.83;5.80;;;;;;;;;;4903816;29;20278;-69
2023/08/16 03:18:35;;;;;;;6.13;5.53;;;;;;;;;;4908705;29;20658;-69
2023/08/16 03:21:01;;;;;;;6.97;4.97;;;;;;;;;;4891396;29;20299;-69
2023/08/16 03:23:28;;;;;;;6.73;5.07;;;;;;;;;;4892780;29;20211;-68
2023/08/16 03:25:56;;;;;;;5.83;5.23;;;;;;;;;;4892459;29;20283;-68
2023/08/16 03:28:23;;;;;;;8.30;5.70;;;;;;;;;;4892583;29;20219;-69
2023/08/16 03:30:50;;;;;;;6.90;5.30;;;;;;;;;;4892433;29;20283;-68
2023/08/16 03:33:17;;;;;;;5.90;5.30;;;;;;;;;;4892294;29;20199;-68
2023/08/16 03:35:44;;;;;;;7.57;6.00;;;;;;;;;;4912302;29;20594;-68
2023/08/16 03:38:12;;;;;;;6.80;6.10;;;;;;;;;;4906476;29;20200;-69
2023/08/16 03:40:39;;;;;;;6.40;5.80;;;;;;;;;;4897270;29;20291;-68
2023/08/16 03:43:06;;;;;;;9.10;6.23;;;;;;;;;;4896406;29;20302;-67
2023/08/16 03:45:32;;;;;;;8.17;6.43;;;;;;;;;;4917759;29;20223;-68
2023/08/16 03:47:59;;;;;;;6.63;5.70;;;;;;;;;;4872999;29;20223;-68
2023/08/16 03:50:26;;;;;;;9.00;6.20;;;;;;;;;;4878228;29;20319;-67
2023/08/16 03:52:53;;;;;;;10.57;6.93;;;;;;;;;;4892027;29;20191;-67
2023/08/16 03:55:20;;;;;;;7.60;5.97;;;;;;;;;;4911384;29;20202;-68
2023/08/16 03:57:47;;;;;;;8.73;6.30;;;;;;;;;;4910999;29;20262;-68
2023/08/16 04:00:15;;;;;;;7.10;6.00;;;;;;;;;;4907983;29;20187;-68
2023/08/16 04:02:42;;;;;;;6.73;5.60;;;;;;;;;;4908487;29;20600;-68
2023/08/16 04:05:10;;;;;;;6.60;5.83;;;;;;;;;;4876582;29;20190;-68
2023/08/16 04:07:38;;;;;;;6.67;6.00;;;;;;;;;;4891764;29;20230;-68
2023/08/16 04:10:05;;;;;;;6.83;5.60;;;;;;;;;;4891683;29;20703;-67
2023/08/16 04:12:34;;;;;;;7.17;6.47;;;;;;;;;;4912045;29;20191;-67
2023/08/16 04:15:03;;;;;;;15.77;7.07;;;;;;;;;;4898830;29;20195;-68
2023/08/16 04:17:30;;;;;;;8.30;6.23;;;;;;;;;;4911954;29;20218;-67
2023/08/16 04:19:57;;;;;;;7.63;6.07;;;;;;;;;;4895785;29;20219;-68
2023/08/16 04:22:24;;;;;;;6.57;5.90;;;;;;;;;;4895458;29;20250;-67
2023/08/16 04:24:51;;;;;;;7.20;5.77;;;;;;;;;;4912433;29;21052;-68
2023/08/16 04:27:18;;;;;;;8.77;5.93;;;;;;;;;;4910098;29;20657;-67
2023/08/16 04:29:45;;;;;;;8.43;6.07;;;;;;;;;;4931393;29;20199;-68
2023/08/16 04:32:11;;;;;;;7.03;6.33;;;;;;;;;;4906144;29;20199;-68
2023/08/16 04:34:38;;;;;;;6.60;5.90;;;;;;;;;;4931428;29;20606;-68
2023/08/16 04:37:06;;;;;;;6.43;5.30;;;;;;;;;;4896433;29;20198;-68
2023/08/16 04:39:34;;;;;;;7.23;6.00;;;;;;;;;;4894400;29;20567;-69
2023/08/16 04:42:01;;;;;;;7.33;6.43;;;;;;;;;;4919739;29;20199;-67
2023/08/16 04:44:46;;;;;;;7.67;5.87;;;;;;;;;;4902556;29;20285;-68
2023/08/16 04:47:13;;;;;;;6.10;5.50;;;;;;;;;;4902866;29;20207;-68
2023/08/16 04:49:58;;;;;;;7.03;5.53;;;;;;;;;;4879338;29;20552;-67
2023/08/16 04:52:27;;;;;;;7.67;5.60;;;;;;;;;;4910756;29;20207;-67
2023/08/16 04:54:54;;;;;;;7.30;5.20;;;;;;;;;;4911191;29;20188;-69
2023/08/16 04:57:22;;;;;;;6.50;5.43;;;;;;;;;;4910721;29;20202;-68
2023/08/16 04:59:52;;;;;;;6.70;5.30;;;;;;;;;;4930667;29;20191;-70
2023/08/16 05:02:20;;;;;;;7.47;5.40;;;;;;;;;;4909642;29;20571;-68
2023/08/16 05:04:47;;;;;;;8.20;5.37;;;;;;;;;;4912400;29;20214;-68
2023/08/16 05:07:14;;;;;;;6.93;4.87;;;;;;;;;;4878537;29;20207;-68
2023/08/16 05:09:41;;;;;;;7.40;4.20;;;;;;;;;;4911134;29;20608;-68
2023/08/16 05:12:08;;;;;;;4.50;4.10;;;;;;;;;;4917825;29;20199;-67
2023/08/16 05:14:34;;;;;;;5.37;4.20;;;;;;;;;;4922989;29;20285;-69
2023/08/16 05:17:01;;;;;;;6.30;4.30;;;;;;;;;;4811725;29;20224;-67
2023/08/16 05:19:28;;;;;;;7.83;4.53;;;;;;;;;;4875764;29;20215;-68
2023/08/16 05:21:55;;;;;;;7.80;4.60;;;;;;;;;;4844441;29;20237;-68
2023/08/16 05:24:22;;;;;;;5.20;4.20;;;;;;;;;;4855447;29;20197;-68
2023/08/16 05:26:49;;;;;;;5.07;4.30;;;;;;;;;;4836952;29;20200;-68
2023/08/16 05:29:16;;;;;;;6.87;4.10;;;;;;;;;;4873977;29;20231;-69
2023/08/16 05:31:43;;;;;;;6.90;3.83;;;;;;;;;;4863767;29;20188;-68
2023/08/16 05:34:10;;;;;;;5.00;4.10;;;;;;;;;;4893483;29;20196;-69
2023/08/16 05:36:46;;;;;;;6.13;3.50;;;;;;;;;;4871350;29;21113;-68
2023/08/16 05:39:31;;;;;;;4.30;3.87;;;;;;;;;;4882062;29;20191;-68
2023/08/16 05:41:58;;;;;;;9.90;4.00;;;;;;;;;;4868916;29;20577;-69
2023/08/16 05:44:42;;;;;;;4.40;3.37;;;;;;;;;;4874250;29;20208;-70
2023/08/16 05:47:08;;;;;;;4.07;3.67;;;;;;;;;;4875809;29;20204;-70
2023/08/16 05:49:35;;;;;;;5.50;3.60;;;;;;;;;;4890831;29;20195;-70
2023/08/16 05:52:03;;;;;;;3.43;3.10;;;;;;;;;;4874804;29;20199;-69
2023/08/16 05:54:30;;;;;;;3.53;3.03;;;;;;;;;;4874464;29;20193;-69
2023/08/16 05:56:57;;;;;;;5.07;3.33;;;;;;;;;;4858050;29;20568;-69
2023/08/16 05:59:24;;;;;;;4.90;2.67;;;;;;;;;;4874338;29;20221;-68
2023/08/16 06:01:51;;;;;;;3.37;2.90;;;;;;;;;;4874389;29;20200;-68
2023/08/16 06:04:18;;;;;;;3.47;3.17;;;;;;;;;;4893129;29;20193;-71
2023/08/16 06:06:44;;;;;;;4.10;3.00;;;;;;;;;;4866252;29;20180;-68
2023/08/16 06:09:11;;;;;;;4.73;2.83;;;;;;;;;;4883876;29;21111;-69
2023/08/16 06:11:38;;;;;;;3.53;2.50;;;;;;;;;;4875933;29;20237;-69
2023/08/16 06:14:05;;;;;;;3.50;2.73;;;;;;;;;;4881491;29;20197;-68
2023/08/16 06:16:32;;;;;;;3.10;2.67;;;;;;;;;;4876039;29;20292;-71
2023/08/16 06:19:17;;;;;;;3.00;2.80;;;;;;;;;;4873785;29;20186;-70
2023/08/16 06:21:43;;;;;;;5.00;3.10;;;;;;;;;;4855344;29;20187;-70
2023/08/16 06:24:11;;;;;;;3.40;2.67;;;;;;;;;;4839413;29;20202;-72
2023/08/16 06:26:38;;;;;;;3.33;2.43;;;;;;;;;;4873106;29;20205;-71
2023/08/16 06:29:05;;;;;;;3.30;2.70;;;;;;;;;;4857669;29;20230;-70
2023/08/16 06:31:31;;;;;;;3.53;3.00;;;;;;;;;;4885849;29;20256;-71
2023/08/16 06:34:00;;;;;;;3.33;2.27;;;;;;;;;;4876140;29;20205;-71
2023/08/16 06:36:27;;;;;;;2.90;2.50;;;;;;;;;;4879307;29;20201;-71
2023/08/16 06:38:54;;;;;;;4.93;2.53;;;;;;;;;;4869428;29;20199;-70
2023/08/16 06:41:21;;;;;;;2.83;2.33;;;;;;;;;;4846310;29;20195;-72
2023/08/16 06:43:47;;;;;;;2.60;2.27;;;;;;;;;;4838836;29;20674;-71
2023/08/16 06:46:14;;;;;;;3.63;2.40;;;;;;;;;;4859984;29;20662;-71
2023/08/16 06:48:41;;;;;;;3.30;2.50;;;;;;;;;;4854769;29;20675;-72
2023/08/16 06:51:08;;;;;;;9.47;3.57;;;;;;;;;;4867498;29;20201;-69
2023/08/16 06:53:39;;;;;;;2.80;2.33;;;;;;;;;;4877972;29;20470;-70
2023/08/16 06:56:06;;;;;;;4.23;2.40;;;;;;;;;;4870278;29;20377;-75
2023/08/16 06:58:33;;;;;;;3.30;2.50;;;;;;;;;;4863986;29;20202;-71
2023/08/16 07:01:00;;;;;;;2.47;2.27;;;;;;;;;;4855583;29;20505;-72
2023/08/16 07:03:27;;;;;;;3.27;2.47;;;;;;;;;;4878923;29;20205;-72
2023/08/16 07:05:54;;;;;;;3.37;2.20;;;;;;;;;;4855763;29;20329;-72
2023/08/16 07:08:21;;;;;;;2.77;1.97;;;;;;;;;;4868302;29;20217;-72
2023/08/16 07:10:47;;;;;;;3.17;2.40;;;;;;;;;;4858237;29;20304;-70
2023/08/16 07:13:14;;;;;;;4.00;2.17;;;;;;;;;;4877761;29;20664;-70
2023/08/16 07:15:41;;;;;;;3.20;1.83;;;;;;;;;;4854740;29;21162;-70
2023/08/16 07:18:08;;;;;;;2.30;2.10;;;;;;;;;;4851085;29;20192;-70
2023/08/16 07:20:35;;;;;;;2.47;1.90;;;;;;;;;;4855221;29;20657;-71
2023/08/16 07:23:02;;;;;;;2.23;2.00;;;;;;;;;;4868189;29;20199;-70
2023/08/16 07:25:30;;;;;;;2.23;1.70;;;;;;;;;;4848450;29;20191;-70
2023/08/16 07:27:56;;;;;;;2.37;2.17;;;;;;;;;;4855085;29;20588;-71
2023/08/16 07:30:23;;;;;;;3.17;1.90;;;;;;;;;;4870973;29;20646;-71
2023/08/16 07:32:50;;;;;;;2.60;1.80;;;;;;;;;;4852873;29;20198;-70
2023/08/16 07:35:17;;;;;;;3.40;1.80;;;;;;;;;;4855429;29;20693;-70
2023/08/16 07:37:44;;;;;;;2.30;2.10;;;;;;;;;;4870445;29;20199;-70
2023/08/16 07:40:11;;;;;;;2.43;1.97;;;;;;;;;;4872822;29;20914;-71
2023/08/16 07:42:37;;;;;;;2.90;2.03;;;;;;;;;;4874368;29;20231;-71
2023/08/16 07:45:05;;;;;;;2.30;2.00;;;;;;;;;;4857437;29;20186;-71
2023/08/16 07:47:32;;;;;;;2.50;1.90;;;;;;;;;;4873672;29;20197;-68
2023/08/16 07:50:00;;;;;;;2.50;2.00;;;;;;;;;;4872355;29;20222;-68
2023/08/16 07:52:27;;;;;;;3.00;2.07;;;;;;;;;;4855024;29;20231;-67
2023/08/16 07:54:55;;;;;;;4.17;2.07;;;;;;;;;;4872938;29;20208;-68
2023/08/16 07:57:22;;;;;;;2.30;2.10;;;;;;;;;;4873147;29;20282;-67
2023/08/16 07:59:50;;;;;;;3.20;2.00;;;;;;;;;;4853729;29;20207;-70
2023/08/16 08:02:17;;;;;;;3.03;2.60;;;;;;;;;;4865555;29;20736;-68
2023/08/16 08:04:45;;;;;;;4.73;2.50;;;;;;;;;;4852394;29;20319;-68
2023/08/16 08:07:12;;;;;;;3.37;1.90;;;;;;;;;;4868612;29;21088;-68
2023/08/16 08:09:39;;;;;;;2.70;1.90;;;;;;;;;;4872035;29;20312;-68
2023/08/16 08:12:06;;;;;;;3.60;2.50;;;;;;;;;;4864976;29;20777;-68
2023/08/16 08:14:33;;;;;;;2.60;2.40;;;;;;;;;;4889022;29;20620;-69
2023/08/16 08:17:00;;;;;;;3.80;2.27;;;;;;;;;;4878962;29;20192;-68
2023/08/16 08:19:27;;;;;;;3.47;2.87;;;;;;;;;;4873411;29;20210;-68
2023/08/16 08:21:54;;;;;;;6.87;4.47;;;;;;;;;;4860991;29;20184;-68
2023/08/16 08:24:20;;;;;;;3.83;3.00;;;;;;;;;;4870698;29;20203;-68
2023/08/16 08:26:48;;;;;;;11.07;3.30;;;;;;;;;;4866909;29;20189;-69
2023/08/16 08:29:32;;;;;;;2.23;1.87;;;;;;;;;;4868147;29;20212;-68
2023/08/16 08:31:59;;;;;;;5.03;3.83;;;;;;;;;;4847424;29;20203;-68
2023/08/16 08:34:26;;;;;;;5.70;4.67;;;;;;;;;;4862882;29;20252;-68
2023/08/16 08:36:54;;;;;;;2.07;1.87;;;;;;;;;;4863677;29;20229;-67
2023/08/16 08:39:21;;;;;;;2.23;2.00;;;;;;;;;;4880592;29;20935;-68
2023/08/16 08:42:08;;;;;;;2.10;1.70;;;;;;;;;;4874890;29;20184;-68
2023/08/16 08:44:38;;;;;;;2.50;2.03;;;;;;;;;;4858009;29;20550;-67
2023/08/16 08:47:06;;;;;;;2.00;1.80;;;;;;;;;;4875950;29;20758;-68
2023/08/16 08:49:40;;;;;;;3.03;1.90;;;;;;;;;;4860025;29;20224;-68
2023/08/16 08:52:07;;;;;;;2.43;1.93;;;;;;;;;;4853557;29;20715;-68
2023/08/16 08:54:34;;;;;;;1.90;1.80;;;;;;;;;;4870273;29;20203;-68
2023/08/16 08:57:02;;;;;;;2.87;2.13;;;;;;;;;;4879318;29;21123;-68
2023/08/16 08:59:33;;;;;;;4.20;1.90;;;;;;;;;;4879234;29;20197;-68
2023/08/16 09:02:00;;;;;;;2.13;1.90;;;;;;;;;;4881116;29;20189;-68
2023/08/16 09:04:28;;;;;;;3.23;2.57;;;;;;;;;;4879672;29;20209;-70
2023/08/16 09:06:56;;;;;;;3.07;2.10;;;;;;;;;;4848283;29;20240;-68
2023/08/16 09:09:23;;;;;;;3.40;2.17;;;;;;;;;;4854867;29;20306;-68
2023/08/16 09:11:49;;;;;;;1.90;1.80;;;;;;;;;;4877937;29;20212;-68
2023/08/16 09:14:16;;;;;;;2.60;2.00;;;;;;;;;;4884302;29;20208;-68
2023/08/16 09:16:43;;;;;;;3.20;1.87;;;;;;;;;;4883860;29;20588;-69
2023/08/16 09:19:15;;;;;;;2.90;1.90;;;;;;;;;;4878978;29;20212;-68
2023/08/16 09:21:42;;;;;;;2.70;2.10;;;;;;;;;;4884029;29;20213;-69
2023/08/16 09:24:09;;;;;;;2.43;1.80;;;;;;;;;;4852048;29;20294;-69
2023/08/16 09:26:37;;;;;;;5.33;2.10;;;;;;;;;;4869334;29;20216;-68
2023/08/16 09:29:04;;;;;;;4.20;2.00;;;;;;;;;;4878033;29;20216;-68
2023/08/16 09:31:37;;;;;;;9.47;2.80;;;;;;;;;;4866092;29;21009;-68
2023/08/16 09:34:07;;;;;;;4.60;2.30;;;;;;;;;;4865890;29;20276;-68
2023/08/16 09:36:35;;;;;;;9.60;2.30;;;;;;;;;;4883485;29;20216;-68
2023/08/16 09:39:04;;;;;;;6.70;2.10;;;;;;;;;;4873720;29;20201;-68
2023/08/16 09:41:32;;;;;;;5.10;2.23;;;;;;;;;;4855155;29;20204;-70
2023/08/16 09:44:05;;;;;;;5.30;2.27;;;;;;;;;;4872950;29;20283;-67
2023/08/16 09:46:33;;;;;;;2.93;2.00;;;;;;;;;;4877117;29;20200;-68
2023/08/16 09:49:09;;;;;;;4.63;2.40;;;;;;;;;;4862485;29;20226;-68
2023/08/16 09:51:37;;;;;;;3.30;2.37;;;;;;;;;;4872852;29;20229;-68
2023/08/16 09:54:13;;;;;;;6.23;2.50;;;;;;;;;;4883065;29;20275;-68
2023/08/16 09:56:40;;;;;;;3.47;2.37;;;;;;;;;;4866826;29;20197;-69
2023/08/16 09:59:27;;;;;;;2.53;2.33;;;;;;;;;;4877936;29;20204;-68
2023/08/16 10:01:58;;;;;;;10.47;3.27;;;;;;;;;;4877954;29;20204;-68
2023/08/16 10:04:28;;;;;;;3.90;2.37;;;;;;;;;;4884260;29;20192;-67
2023/08/16 10:06:58;;;;;;;4.03;2.63;;;;;;;;;;4846805;29;20250;-67
2023/08/16 10:09:28;;;;;;;5.87;2.40;;;;;;;;;;4854377;29;20671;-67
2023/08/16 10:11:55;;;;;;;3.40;2.20;;;;;;;;;;4892002;29;20260;-67
2023/08/16 10:14:21;;;;;;;2.70;2.20;;;;;;;;;;4860948;29;21008;-67
2023/08/16 10:16:50;;;;;;;3.57;2.47;;;;;;;;;;4892863;29;20260;-68
2023/08/16 10:19:17;;;;;;;2.47;2.20;;;;;;;;;;4876207;29;20521;-67
2023/08/16 10:21:44;;;;;;;4.63;2.50;;;;;;;;;;4861299;29;20550;-67
2023/08/16 10:24:11;;;;;;;4.70;2.50;;;;;;;;;;4875876;29;20189;-67
2023/08/16 10:26:38;;;;;;;5.93;2.37;;;;;;;;;;4866461;29;20197;-68
2023/08/16 10:29:06;;;;;;;3.07;2.23;;;;;;;;;;4857875;29;20701;-67
2023/08/16 10:31:47;;;;;;;4.53;2.30;;;;;;;;;;4877639;29;20188;-67
2023/08/16 10:34:14;;;;;;;2.83;1.93;;;;;;;;;;4860299;29;20216;-68
2023/08/16 10:36:41;;;;;;;4.03;1.93;;;;;;;;;;4882819;29;20197;-67
2023/08/16 10:39:08;;;;;;;2.33;1.90;;;;;;;;;;4887517;29;20187;-67
2023/08/16 10:41:39;;;;;;;4.17;2.00;;;;;;;;;;4888244;29;20204;-67
2023/08/16 10:44:23;;;;;;;5.40;2.23;;;;;;;;;;4881594;29;20648;-67
2023/08/16 10:46:50;;;;;;;3.27;1.93;;;;;;;;;;4892658;29;20203;-68
2023/08/16 10:49:20;;;;;;;2.60;1.90;;;;;;;;;;4892600;29;20688;-67
2023/08/16 10:51:47;;;;;;;3.83;1.83;;;;;;;;;;4892674;29;20199;-67
2023/08/16 10:54:15;;;;;;;3.70;1.87;;;;;;;;;;4883490;29;20208;-67
2023/08/16 10:56:47;;;;;;;2.00;1.80;;;;;;;;;;4875393;29;20192;-67
2023/08/16 10:59:15;;;;;;;2.70;1.80;;;;;;;;;;4886128;29;20553;-67
2023/08/16 11:01:46;;;;;;;5.17;2.00;;;;;;;;;;4868020;29;20197;-67
2023/08/16 11:04:13;;;;;;;3.57;2.10;;;;;;;;;;4850014;29;20564;-67
2023/08/16 11:06:40;;;;;;;3.53;1.70;;;;;;;;;;4880562;29;20248;-67
2023/08/16 11:09:21;;;;;;;3.30;1.90;;;;;;;;;;4892305;29;20216;-67
2023/08/16 11:11:49;;;;;;;3.83;2.03;;;;;;;;;;4874166;29;20243;-67
2023/08/16 11:14:17;;;;;;;2.83;1.83;;;;;;;;;;4864335;29;20203;-67
2023/08/16 11:16:44;;;;;;;2.57;1.83;;;;;;;;;;4891655;29;20218;-67
2023/08/16 11:19:10;;;;;;;3.03;2.10;;;;;;;;;;4891940;29;20196;-67
2023/08/16 11:21:44;;;;;;;3.47;1.90;;;;;;;;;;4871403;29;20204;-67
2023/08/16 11:24:11;;;;;;;2.83;1.77;;;;;;;;;;4891899;29;20987;-68
2023/08/16 11:26:38;;;;;;;3.20;1.63;;;;;;;;;;4859279;29;20656;-67
2023/08/16 11:29:05;;;;;;;3.73;1.70;;;;;;;;;;4880936;29;20209;-67
2023/08/16 11:31:32;;;;;;;2.70;1.73;;;;;;;;;;4889592;29;20893;-68
2023/08/16 11:33:59;;;;;;;4.57;2.00;;;;;;;;;;4891631;29;20197;-67
2023/08/16 11:36:26;;;;;;;1.87;1.70;;;;;;;;;;4875448;29;20709;-67
2023/08/16 11:38:53;;;;;;;3.00;1.80;;;;;;;;;;4874424;29;20717;-67
2023/08/16 11:41:37;;;;;;;3.37;1.93;;;;;;;;;;4887508;29;20180;-67
2023/08/16 11:44:04;;;;;;;3.77;1.93;;;;;;;;;;4891786;29;20212;-67
2023/08/16 11:46:41;;;;;;;4.30;2.13;;;;;;;;;;4891972;29;20548;-67
2023/08/16 11:49:08;;;;;;;4.97;1.83;;;;;;;;;;4869312;29;20211;-67
2023/08/16 11:51:52;;;;;;;2.00;1.80;;;;;;;;;;4847712;29;20172;-67
2023/08/16 11:54:21;;;;;;;5.07;1.87;;;;;;;;;;4882659;29;20634;-67
2023/08/16 11:57:14;;;;;;;2.17;1.60;;;;;;;;;;4878828;29;20173;-67
2023/08/16 11:59:41;;;;;;;3.40;2.10;;;;;;;;;;4887043;29;20191;-67
2023/08/16 12:02:09;;;;;;;2.50;1.80;;;;;;;;;;4891307;29;20279;-67
2023/08/16 12:04:39;;;;;;;3.43;2.10;;;;;;;;;;4880884;29;20200;-67
2023/08/16 12:07:09;;;;;;;2.20;1.53;;;;;;;;;;4827236;29;20260;-67
2023/08/16 12:09:40;;;;;;;2.97;2.00;;;;;;;;;;4864115;29;20216;-68
2023/08/16 12:12:08;;;;;;;2.67;1.67;;;;;;;;;;4870055;29;20186;-67
2023/08/16 12:14:34;;;;;;;3.10;2.00;;;;;;;;;;4862459;29;20193;-67
2023/08/16 12:17:01;;;;;;;4.87;2.10;;;;;;;;;;4863779;29;20300;-67
2023/08/16 12:19:28;;;;;;;3.53;1.60;;;;;;;;;;4868461;29;20193;-67
2023/08/16 12:21:55;;;;;;;3.83;1.60;;;;;;;;;;4870906;29;20205;-67
2023/08/16 12:24:21;;;;;;;3.13;1.77;;;;;;;;;;4861429;29;20974;-67
2023/08/16 12:26:49;;;;;;;5.30;1.70;;;;;;;;;;4866887;29;20239;-68
2023/08/16 12:29:17;;;;;;;3.30;1.60;;;;;;;;;;4852861;29;20840;-67
2023/08/16 12:31:43;;;;;;;3.87;2.13;;;;;;;;;;4872029;29;20252;-67
2023/08/16 12:34:10;;;;;;;2.47;1.60;;;;;;;;;;4866663;29;20189;-67
2023/08/16 12:36:37;;;;;;;13.13;2.97;;;;;;;;;;4875817;29;20272;-67
2023/08/16 12:39:05;;;;;;;2.33;1.50;;;;;;;;;;4859159;29;20193;-67
2023/08/16 12:41:33;;;;;;;2.13;1.80;;;;;;;;;;4875691;29;20199;-67
2023/08/16 12:44:03;;;;;;;2.90;1.80;;;;;;;;;;4875458;29;20215;-67
2023/08/16 12:46:30;;;;;;;2.47;1.90;;;;;;;;;;4875693;29;20204;-67
2023/08/16 12:48:58;;;;;;;3.57;2.37;;;;;;;;;;4875643;29;20194;-67
2023/08/16 12:51:25;;;;;;;5.73;2.30;;;;;;;;;;4875668;29;20197;-68
2023/08/16 12:53:51;;;;;;;5.83;2.30;;;;;;;;;;4873791;29;20299;-67
2023/08/16 12:56:18;;;;;;;2.97;2.10;;;;;;;;;;4875648;29;20205;-67
2023/08/16 12:58:45;;;;;;;6.83;2.30;;;;;;;;;;4857930;29;20631;-67
2023/08/16 13:01:23;;;;;;;3.20;2.10;;;;;;;;;;4858590;29;20197;-67
2023/08/16 13:03:50;;;;;;;3.13;2.20;;;;;;;;;;4863685;29;20273;-67
2023/08/16 13:06:19;;;;;;;3.23;1.80;;;;;;;;;;4843155;29;20712;-68
2023/08/16 13:08:49;;;;;;;4.67;2.00;;;;;;;;;;4872870;29;20196;-67
2023/08/16 13:11:19;;;;;;;11.70;2.30;;;;;;;;;;4870160;29;20240;-67
2023/08/16 13:13:48;;;;;;;2.97;1.60;;;;;;;;;;4875656;29;20549;-67
2023/08/16 13:16:16;;;;;;;3.27;1.53;;;;;;;;;;4874579;29;20197;-67
2023/08/16 13:18:56;;;;;;;1.97;1.60;;;;;;;;;;4874698;29;20216;-67
2023/08/16 13:21:26;;;;;;;3.33;1.50;;;;;;;;;;4874727;29;20272;-68
2023/08/16 13:24:06;;;;;;;2.90;1.63;;;;;;;;;;4860468;29;20303;-67
2023/08/16 13:26:53;;;;;;;4.13;1.80;;;;;;;;;;4874977;29;20249;-67
2023/08/16 13:29:23;;;;;;;4.63;1.83;;;;;;;;;;4875005;29;20535;-67
2023/08/16 13:31:56;;;;;;;4.57;1.93;;;;;;;;;;4874238;29;20193;-67
2023/08/16 13:34:30;;;;;;;7.83;2.10;;;;;;;;;;4874349;29;20200;-67
2023/08/16 13:37:01;;;;;;;2.10;1.90;;;;;;;;;;4875107;29;20197;-67
2023/08/16 13:39:48;;;;;;;2.13;1.50;;;;;;;;;;4874217;29;20196;-69
2023/08/16 13:42:28;;;;;;;2.80;1.90;;;;;;;;;;4859980;29;20192;-66
2023/08/16 13:45:12;;;;;;;10.80;2.73;;;;;;;;;;4874593;29;21035;-66
2023/08/16 13:47:48;;;;;;;1.80;1.50;;;;;;;;;;4874758;29;20284;-66
2023/08/16 13:50:15;;;;;;;35.63;4.67;;;;;;;;;;4873132;29;20208;-67
2023/08/16 13:52:42;;;;;;;11.37;2.53;;;;;;;;;;4856508;29;20275;-67
2023/08/16 13:55:09;;;;;;;19.30;3.03;;;;;;;;;;4873544;29;20203;-66
2023/08/16 13:57:36;;;;;;;5.53;1.87;;;;;;;;;;4874065;29;20744;-66
2023/08/16 14:00:03;;;;;;;4.77;1.70;;;;;;;;;;4874656;29;20275;-66
2023/08/16 14:02:37;;;;;;;4.03;1.70;;;;;;;;;;4873709;29;20204;-66
2023/08/16 14:05:21;;;;;;;1.73;1.63;;;;;;;;;;4874223;29;20250;-67
2023/08/16 14:07:49;;;;;;;6.17;2.20;;;;;;;;;;4856718;29;20600;-66
2023/08/16 14:10:16;;;;;;;4.30;1.90;;;;;;;;;;4857388;29;20248;-67
2023/08/16 14:12:43;;;;;;;13.77;2.80;;;;;;;;;;4874325;29;20199;-67
2023/08/16 14:15:09;;;;;;;11.40;3.00;;;;;;;;;;4874252;29;20225;-67
2023/08/16 14:17:36;;;;;;;2.80;1.83;;;;;;;;;;4872744;29;20263;-67
2023/08/16 14:20:04;;;;;;;5.13;2.00;;;;;;;;;;4874300;29;20284;-67
2023/08/16 14:22:31;;;;;;;11.93;2.30;;;;;;;;;;4857584;29;20193;-67
2023/08/16 14:25:15;;;;;;;6.43;2.20;;;;;;;;;;4859508;29;20180;-67
2023/08/16 14:27:46;;;;;;;3.67;2.00;;;;;;;;;;4857790;29;20203;-67
2023/08/16 14:30:13;;;;;;;4.57;2.03;;;;;;;;;;4856797;29;20678;-67
2023/08/16 14:32:40;;;;;;;4.80;2.10;;;;;;;;;;4873946;29;20204;-67
2023/08/16 14:35:08;;;;;;;3.23;1.80;;;;;;;;;;4852201;29;20205;-67
2023/08/16 14:37:34;;;;;;;15.23;2.53;;;;;;;;;;4872371;29;20207;-67
2023/08/16 14:40:01;;;;;;;5.27;2.10;;;;;;;;;;4874082;29;20284;-67
2023/08/16 14:42:28;;;;;;;4.77;1.93;;;;;;;;;;4871992;29;20632;-67
2023/08/16 14:44:55;;;;;;;8.73;2.37;;;;;;;;;;4873633;29;20222;-66
2023/08/16 14:47:25;;;;;;;4.00;1.97;;;;;;;;;;4872947;29;20289;-67
2023/08/16 14:49:51;;;;;;;5.63;2.13;;;;;;;;;;4874163;29;20216;-68
2023/08/16 14:52:18;;;;;;;2.57;1.97;;;;;;;;;;4873235;29;20260;-68
2023/08/16 14:54:45;;;;;;;7.90;2.70;;;;;;;;;;4851945;29;20573;-68
2023/08/16 14:57:12;;;;;;;21.73;3.80;;;;;;;;;;4872760;29;20214;-68
2023/08/16 14:59:39;;;;;;;9.00;2.80;;;;;;;;;;4870148;29;20199;-67
2023/08/16 15:02:05;;;;;;;12.90;3.10;;;;;;;;;;4873388;29;20201;-68
2023/08/16 15:04:32;;;;;;;12.40;3.10;;;;;;;;;;4873346;29;20198;-67
2023/08/16 15:06:59;;;;;;;10.07;2.90;;;;;;;;;;4862140;29;20782;-68
2023/08/16 15:09:27;;;;;;;4.63;2.60;;;;;;;;;;4872958;29;20557;-68
2023/08/16 15:11:53;;;;;;;5.40;2.33;;;;;;;;;;4872891;29;20234;-67
2023/08/16 15:14:20;;;;;;;5.03;2.57;;;;;;;;;;4873613;29;20201;-67
2023/08/16 15:16:47;;;;;;;8.60;3.10;;;;;;;;;;4873343;29;20228;-68
2023/08/16 15:19:15;;;;;;;4.93;2.30;;;;;;;;;;4872865;29;20273;-68
2023/08/16 15:21:43;;;;;;;5.00;2.20;;;;;;;;;;4872570;29;20199;-68
2023/08/16 15:24:13;;;;;;;3.63;2.00;;;;;;;;;;4871931;29;20225;-67
2023/08/16 15:26:40;;;;;;;8.30;2.40;;;;;;;;;;4872727;29;20201;-67